Flight Number: EUR3022 Duration: 11:00
Departure: Moscow Sheremetyevo (UUEE) at 08:00 Distance: 4386 Nm
Arrival: Indianapolis Intl Airport (KIND) at 19:00 Equipment: B777

Weather Information
Moscow / Sheremet'Ye , Russia (UUEE) 55-59N 037-30E Oct 19, 2018 - 01:30 PM EDT / 2018.10.19 1730 UTC
Wind: from the WNW (300 degrees) at 9 MPH (8 KT):0
Visibility: greater than 7 mile(s):0
Sky conditions: partly cloudy Temperature: 51 F (11 C) Dew Point: 48 F (9 C) Relative Humidity: 87% Pressure (altimeter): 30.00 in. Hg (1016 hPa)
ob: UUEE 191730Z 30004MPS 9999 SCT006 11/09 Q1016 R24C/CLRD62 R24L/CLRD62 NOSIG cycle: 17
Sunrise: 04:15 Sunset: 14:15 (UTC)

INDIANAPOLIS INTERNATIONAL AIRPORT , IN, United States (KIND) 39-43N 86-17W 242M Oct 19, 2018 - 01:54 PM EDT / 2018.10.19 1754 UTC
Wind: from the SSW (200 degrees) at 12 MPH (10 KT):0
Visibility: 10 mile(s):0
Sky conditions: mostly cloudy Temperature: 53.1 F (11.7 C) Dew Point: 36.0 F (2.2 C) Relative Humidity: 52% Pressure (altimeter): 30.1 in. Hg (1019 hPa) Pressure tendency: 0.12 inches (3.9 hPa) lower than three hours ago
ob: KIND 191754Z 20010KT 10SM BKN100 BKN130 12/02 A3010 RMK AO2 SLP196 T01170022 10122 20039 58039 cycle: 18
Sunrise: 12:03 Sunset: 22:56 (UTC)

TAF:2018/10/19 18:28 TAF KIND 191726Z 1918/2024 22012KT P6SM VCSH OVC110 FM192200 23012KT P6SM VCSH OVC040 FM200100 23012KT P6SM VCSH OVC025 FM200300 24012KT P6SM OVC008 FM200700 25010KT P6SM BKN010 FM201000 27009KT P6SM SCT045

This route has never been flown.

Route map